Time;durP1;ratioP1;P1;durP2;ratioP2;P2;SDS_P1;SDS_P2;PMS_P1;PMS_P2;Temp;Humidity;BMP_temperature;BMP_pressure;BME280_temperature;BME280_humidity;BME280_pressure;Samples;Min_cycle;Max_cycle;Signal;HPM_P1;HPM_P2
2022/06/02 00:01:19;;;;;;;5.28;1.50;;;17.20;45.90;;;;;;5016927;28;20029;-67
2022/06/02 00:04:19;;;;;;;3.20;1.40;;;17.20;46.10;;;;;;5021931;28;20108;-67
2022/06/02 00:07:10;;;;;;;4.82;1.42;;;17.20;46.20;;;;;;5023964;28;20037;-67
2022/06/02 00:09:44;;;;;;;;;;;17.20;46.40;;;;;;5022033;28;20029;-67
2022/06/02 00:12:35;;;;;;;5.25;1.63;;;17.20;46.50;;;;;;5015005;28;19913;-67
2022/06/02 00:15:41;;;;;;;4.93;1.50;;;17.20;46.70;;;;;;5020572;28;20032;-67
2022/06/02 00:18:10;;;;;;;3.30;1.50;;;17.10;46.90;;;;;;5026560;28;20503;-67
2022/06/02 00:21:21;;;;;;;4.95;1.70;;;17.10;46.90;;;;;;5019940;28;20030;-67
2022/06/02 00:24:06;;;;;;;6.50;1.80;;;17.10;47.10;;;;;;5021671;28;20052;-67
2022/06/02 00:27:01;;;;;;;4.35;1.67;;;17.10;47.30;;;;;;5011883;28;20026;-67
2022/06/02 00:30:03;;;;;;;4.32;1.70;;;17.10;47.50;;;;;;5018022;28;20034;-67
2022/06/02 00:32:55;;;;;;;4.82;1.70;;;17.10;47.70;;;;;;5019854;28;20384;-67
2022/06/02 00:35:46;;;;;;;4.93;1.75;;;17.10;47.80;;;;;;5013984;28;20029;-68
2022/06/02 00:38:18;;;;;;;3.00;1.70;;;17.00;47.80;;;;;;5018067;28;20041;-67
2022/06/02 00:40:45;;;;;;;3.60;1.85;;;17.10;47.90;;;;;;5020211;28;20056;-67
2022/06/02 00:43:30;;;;;;;4.65;1.83;;;17.10;48.20;;;;;;5033132;28;20052;-67
2022/06/02 00:46:20;;;;;;;5.35;2.28;;;17.10;48.30;;;;;;5016158;28;20148;-67
2022/06/02 00:49:04;;;;;;;4.50;1.70;;;17.10;48.40;;;;;;5026352;28;20420;-67
2022/06/02 00:51:39;;;;;;;4.85;1.80;;;17.10;48.50;;;;;;5024829;28;20447;-67
2022/06/02 00:57:34;;;;;;;8.60;2.15;;;17.20;48.80;;;;;;5022808;28;20047;-67
2022/06/02 01:00:17;;;;;;;4.07;1.60;;;17.10;48.80;;;;;;5023693;28;20055;-67
2022/06/02 01:02:45;;;;;;;3.53;1.52;;;17.10;49.00;;;;;;5019865;28;20105;-67
2022/06/02 01:05:12;;;;;;;4.78;1.60;;;17.10;49.10;;;;;;5010229;28;20629;-67
2022/06/02 01:07:37;;;;;;;3.92;1.70;;;17.10;49.20;;;;;;5020168;28;20040;-67
2022/06/02 01:10:11;;;;;;;4.15;1.60;;;17.10;49.20;;;;;;5027154;28;20030;-67
2022/06/02 01:12:42;;;;;;;4.35;1.77;;;17.00;49.60;;;;;;5028868;28;20025;-67
2022/06/02 01:15:34;;;;;;;5.85;1.77;;;17.10;49.70;;;;;;5024567;28;20037;-67
2022/06/02 01:17:59;;;;;;;3.90;1.70;;;17.10;49.80;;;;;;5031683;28;20088;-67
2022/06/02 01:20:43;;;;;;;3.47;1.70;;;17.00;49.70;;;;;;5028700;28;20037;-67
2022/06/02 01:23:21;;;;;;;4.15;1.70;;;17.00;49.70;;;;;;5027930;28;20055;-67
2022/06/02 01:26:12;;;;;;;5.40;2.00;;;17.00;49.70;;;;;;5025787;28;20057;-67
2022/06/02 01:28:59;;;;;;;6.75;1.80;;;17.00;49.70;;;;;;5019096;28;20578;-67
2022/06/02 01:31:48;;;;;;;6.03;1.80;;;17.00;49.80;;;;;;5012855;28;20030;-67
2022/06/02 01:34:32;;;;;;;3.95;1.88;;;17.00;49.80;;;;;;5019493;28;20034;-67
2022/06/02 01:37:12;;;;;;;3.70;1.70;;;17.00;49.90;;;;;;5037473;28;20045;-67
2022/06/02 01:39:47;;;;;;;4.18;1.85;;;17.00;50.00;;;;;;5028697;28;20036;-68
2022/06/02 01:42:54;;;;;;;4.25;1.70;;;17.00;50.10;;;;;;5024037;28;20033;-67
2022/06/02 01:45:31;;;;;;;3.63;1.60;;;17.00;50.20;;;;;;5002900;28;20111;-67
2022/06/02 01:48:24;;;;;;;4.05;2.00;;;17.00;50.30;;;;;;5010966;28;20741;-67
2022/06/02 01:50:58;;;;;;;5.10;1.90;;;17.00;50.60;;;;;;5011694;28;20041;-67
2022/06/02 01:53:42;;;;;;;3.72;1.70;;;16.90;50.70;;;;;;5010294;28;20038;-67
2022/06/02 01:56:11;;;;;;;4.65;1.75;;;16.90;50.70;;;;;;5006957;28;20046;-67
2022/06/02 01:58:39;;;;;;;5.80;1.67;;;16.80;50.90;;;;;;5007062;28;20038;-67
2022/06/02 02:01:24;;;;;;;5.15;1.70;;;16.80;51.10;;;;;;5007672;28;20092;-67
2022/06/02 02:04:09;;;;;;;5.43;1.90;;;16.80;51.20;;;;;;5008351;28;20224;-67
2022/06/02 02:07:07;;;;;;;5.35;1.73;;;16.70;51.20;;;;;;5007870;28;20034;-67
2022/06/02 02:09:35;;;;;;;9.68;2.20;;;16.70;51.40;;;;;;4967850;28;20118;-67
2022/06/02 02:12:03;;;;;;;3.97;1.85;;;16.70;51.70;;;;;;4968015;28;20031;-67
2022/06/02 02:14:46;;;;;;;4.70;1.70;;;16.70;51.60;;;;;;4966070;28;20122;-67
2022/06/02 02:17:35;;;;;;;3.53;1.50;;;16.60;51.70;;;;;;4968571;28;20034;-67
2022/06/02 02:20:25;;;;;;;4.93;1.80;;;16.70;51.90;;;;;;4973773;28;20045;-67
2022/06/02 02:22:59;;;;;;;3.65;1.80;;;16.60;51.90;;;;;;4976256;28;20141;-67
2022/06/02 02:25:43;;;;;;;4.35;1.90;;;16.70;52.00;;;;;;4972049;28;20068;-67
2022/06/02 02:28:29;;;;;;;5.82;1.70;;;16.60;52.10;;;;;;4984331;28;20062;-67
2022/06/02 02:31:07;;;;;;;5.03;1.95;;;16.60;52.00;;;;;;4974116;28;20088;-67
2022/06/02 02:33:44;;;;;;;4.72;1.63;;;16.60;52.00;;;;;;4980752;28;20038;-67
2022/06/02 02:36:43;;;;;;;4.97;1.63;;;16.60;52.30;;;;;;4980935;28;20044;-67
2022/06/02 02:39:32;;;;;;;4.13;1.70;;;16.60;52.50;;;;;;4981459;28;20065;-67
2022/06/02 02:42:08;;;;;;;4.25;1.70;;;16.60;52.70;;;;;;4982651;28;20058;-67
2022/06/02 02:44:47;;;;;;;3.88;1.67;;;16.50;52.70;;;;;;4980106;28;20030;-67
2022/06/02 02:47:31;;;;;;;6.75;1.70;;;16.50;53.00;;;;;;5022720;28;20041;-67
2022/06/02 02:50:12;;;;;;;3.50;1.70;;;16.50;53.00;;;;;;5025924;28;20451;-67
2022/06/02 02:52:52;;;;;;;3.40;1.73;;;16.50;52.90;;;;;;5020842;28;20105;-67
2022/06/02 02:55:27;;;;;;;3.58;1.85;;;16.50;53.10;;;;;;5026916;28;20187;-67
2022/06/02 02:58:20;;;;;;;4.70;1.80;;;16.50;53.00;;;;;;5026779;28;20057;-67
2022/06/02 03:01:07;;;;;;;5.60;1.88;;;16.40;53.50;;;;;;5025709;28;20044;-67
2022/06/02 03:03:43;;;;;;;4.88;2.05;;;16.40;53.80;;;;;;5024100;28;20025;-67
2022/06/02 03:06:30;;;;;;;6.13;1.80;;;16.40;54.00;;;;;;5023192;28;20781;-67
2022/06/02 03:09:30;;;;;;;10.00;2.05;;;16.40;54.20;;;;;;5023184;28;20092;-67
2022/06/02 03:12:05;;;;;;;6.85;1.83;;;16.30;54.00;;;;;;5019479;28;20104;-67
2022/06/02 03:14:46;;;;;;;7.07;2.13;;;16.20;54.40;;;;;;5024323;28;20057;-67
2022/06/02 03:17:42;;;;;;;3.53;1.80;;;16.20;54.60;;;;;;5024429;28;20037;-67
2022/06/02 03:20:39;;;;;;;3.33;1.80;;;16.30;54.40;;;;;;5027409;28;20033;-67
2022/06/02 03:23:30;;;;;;;3.90;1.83;;;16.30;54.70;;;;;;5023241;28;20029;-67
2022/06/02 03:26:06;;;;;;;4.93;1.90;;;16.30;54.70;;;;;;5010658;28;20025;-67
2022/06/02 03:28:40;;;;;;;4.50;1.83;;;16.30;54.50;;;;;;5025417;28;20041;-67
2022/06/02 03:31:21;;;;;;;3.67;1.63;;;16.30;54.40;;;;;;5012589;28;20060;-67
2022/06/02 03:34:28;;;;;;;3.88;1.60;;;16.30;54.40;;;;;;5021548;28;20516;-67
2022/06/02 03:37:28;;;;;;;3.25;1.70;;;16.30;54.20;;;;;;5018355;28;20045;-67
2022/06/02 03:40:18;;;;;;;5.68;1.60;;;16.30;54.20;;;;;;5027634;28;20483;-67
2022/06/02 03:43:10;;;;;;;5.90;1.90;;;16.30;54.10;;;;;;5028280;28;20045;-67
2022/06/02 03:45:38;;;;;;;3.20;1.55;;;16.40;54.00;;;;;;5013453;28;20025;-67
2022/06/02 03:48:21;;;;;;;7.28;2.00;;;16.40;53.90;;;;;;5022919;28;20400;-67
2022/06/02 03:51:00;;;;;;;5.25;1.60;;;16.40;53.90;;;;;;5025257;28;20449;-67
2022/06/02 03:54:16;;;;;;;6.10;1.67;;;16.40;54.00;;;;;;5029538;28;20025;-67
2022/06/02 03:57:04;;;;;;;3.97;1.77;;;16.40;53.90;;;;;;4981834;28;20054;-67
2022/06/02 04:00:07;;;;;;;6.22;1.73;;;16.40;54.00;;;;;;4970790;28;20531;-67
2022/06/02 04:02:48;;;;;;;4.07;1.60;;;16.40;54.00;;;;;;4983837;28;20068;-67
2022/06/02 04:05:25;;;;;;;3.67;1.80;;;16.40;54.20;;;;;;4987941;28;20038;-67
2022/06/02 04:08:24;;;;;;;7.10;1.65;;;16.40;54.00;;;;;;4987263;28;20093;-67
2022/06/02 04:11:14;;;;;;;5.70;1.90;;;16.40;53.90;;;;;;4982376;28;20511;-67
2022/06/02 04:14:03;;;;;;;4.28;1.77;;;16.40;53.80;;;;;;4982396;28;20039;-67
2022/06/02 04:16:50;;;;;;;5.45;1.67;;;16.40;53.90;;;;;;4983782;28;20038;-67
2022/06/02 04:22:21;;;;;;;3.72;1.60;;;16.40;54.00;;;;;;4998120;28;20056;-67
2022/06/02 04:24:54;;;;;;;4.25;1.60;;;16.40;53.80;;;;;;4999889;28;20057;-67
2022/06/02 04:27:23;;;;;;;4.25;1.80;;;16.40;54.10;;;;;;4979605;28;20165;-67
2022/06/02 04:30:04;;;;;;;3.78;1.60;;;16.40;53.80;;;;;;4983325;28;20069;-67
2022/06/02 04:32:49;;;;;;;3.63;1.50;;;16.50;53.80;;;;;;5000968;28;20034;-70
2022/06/02 04:35:26;;;;;;;4.70;1.77;;;16.40;53.80;;;;;;5020699;28;20044;-68
2022/06/02 04:38:10;;;;;;;4.60;1.42;;;16.40;54.00;;;;;;5022685;28;20064;-67
2022/06/02 04:40:57;;;;;;;13.43;2.28;;;16.40;54.10;;;;;;5020854;28;20030;-67
2022/06/02 04:44:00;;;;;;;3.58;1.65;;;16.40;54.20;;;;;;5026322;28;20692;-67
2022/06/02 04:46:52;;;;;;;23.30;2.38;;;16.30;54.20;;;;;;5024980;28;20121;-66
2022/06/02 04:49:26;;;;;;;5.05;1.58;;;16.30;54.50;;;;;;5025392;28;20167;-68
2022/06/02 04:52:16;;;;;;;3.28;1.50;;;16.30;54.70;;;;;;5029573;28;20500;-68
2022/06/02 04:55:18;;;;;;;4.63;1.60;;;16.30;54.40;;;;;;5028228;28;20060;-68
2022/06/02 04:58:00;;;;;;;4.47;1.60;;;16.30;54.40;;;;;;5036572;28;20041;-68
2022/06/02 05:00:58;;;;;;;6.03;1.60;;;16.30;54.00;;;;;;5036483;28;20033;-68
2022/06/02 05:03:55;;;;;;;4.22;1.70;;;16.30;53.70;;;;;;5034478;28;20492;-68
2022/06/02 05:06:35;;;;;;;4.30;1.52;;;16.30;53.40;;;;;;5008618;28;20046;-67
2022/06/02 05:09:13;;;;;;;3.63;1.50;;;16.30;53.40;;;;;;5002026;28;20034;-67
2022/06/02 05:11:57;;;;;;;3.45;1.40;;;16.40;53.40;;;;;;5001404;28;20042;-67
2022/06/02 05:14:34;;;;;;;3.30;1.70;;;16.40;53.40;;;;;;5005980;28;20034;-67
2022/06/02 05:17:28;;;;;;;4.85;1.42;;;16.40;52.70;;;;;;5006885;28;20197;-67
2022/06/02 05:19:59;;;;;;;3.30;1.30;;;16.50;52.80;;;;;;5000163;28;20382;-68
2022/06/02 05:22:51;;;;;;;3.72;1.50;;;16.50;52.50;;;;;;5006319;28;20053;-68
2022/06/02 05:25:35;;;;;;;8.25;1.70;;;16.60;52.50;;;;;;5009661;28;20240;-68
2022/06/02 05:28:07;;;;;;;4.97;1.85;;;16.60;52.50;;;;;;5013340;28;20072;-67
2022/06/02 05:31:05;;;;;;;3.83;1.50;;;16.60;52.40;;;;;;5014225;28;20137;-66
2022/06/02 05:33:49;;;;;;;3.63;1.50;;;16.60;52.40;;;;;;5017361;28;20169;-67
2022/06/02 05:36:47;;;;;;;6.68;1.60;;;16.60;52.00;;;;;;5007145;28;20520;-67
2022/06/02 05:39:21;;;;;;;7.97;1.60;;;16.70;51.90;;;;;;5005462;28;20034;-67
2022/06/02 05:42:22;;;;;;;3.67;1.40;;;16.70;51.80;;;;;;5013142;28;20041;-66
2022/06/02 05:45:06;;;;;;;6.03;1.50;;;16.70;51.80;;;;;;5023767;28;20511;-66
2022/06/02 05:47:48;;;;;;;5.03;1.50;;;16.80;51.40;;;;;;5028120;28;20021;-66
2022/06/02 05:50:31;;;;;;;3.83;1.73;;;16.80;51.20;;;;;;5029709;28;20050;-66
2022/06/02 05:53:07;;;;;;;5.75;1.80;;;16.90;51.60;;;;;;5031425;28;20025;-66
2022/06/02 05:56:06;;;;;;;3.42;1.60;;;16.90;51.10;;;;;;5028495;28;20037;-66
2022/06/02 05:58:35;;;;;;;4.38;1.58;;;17.00;51.10;;;;;;5011491;28;20120;-66
2022/06/02 06:01:09;;;;;;;4.05;1.50;;;17.00;51.20;;;;;;5014629;28;20037;-66
2022/06/02 06:04:01;;;;;;;3.38;1.63;;;17.00;51.10;;;;;;5029479;28;20092;-66
2022/06/02 06:06:45;;;;;;;5.30;1.70;;;17.00;51.00;;;;;;5027292;28;20037;-66
2022/06/02 06:09:36;;;;;;;3.85;1.30;;;17.10;50.50;;;;;;5016061;28;20032;-66
2022/06/02 06:12:02;;;;;;;;;;;17.10;50.40;;;;;;5014612;28;20040;-66
2022/06/02 06:14:43;;;;;;;4.88;1.50;;;17.20;50.40;;;;;;5017513;28;19936;-66
2022/06/02 06:17:24;;;;;;;3.92;1.75;;;17.40;50.20;;;;;;5023651;28;20069;-66
2022/06/02 06:20:28;;;;;;;4.53;1.52;;;17.40;50.00;;;;;;5013345;28;20113;-66
2022/06/02 06:23:13;;;;;;;3.85;1.50;;;17.60;49.80;;;;;;5010227;28;20029;-66
2022/06/02 06:26:09;;;;;;;4.45;1.40;;;17.80;49.20;;;;;;5006787;28;20053;-66
2022/06/02 06:28:58;;;;;;;7.40;1.60;;;18.10;48.30;;;;;;5007346;28;20037;-66
2022/06/02 06:31:52;;;;;;;4.50;1.23;;;18.40;48.20;;;;;;5007405;28;20493;-66
2022/06/02 06:34:33;;;;;;;5.90;2.40;;;18.90;47.00;;;;;;4949494;28;20450;-67
2022/06/02 06:37:11;;;;;;;4.03;1.45;;;19.10;46.00;;;;;;4950696;28;20040;-66
2022/06/02 06:40:17;;;;;;;3.72;1.40;;;19.30;45.60;;;;;;4952420;28;20039;-66
2022/06/02 06:43:12;;;;;;;3.65;1.20;;;19.30;44.30;;;;;;4912043;29;20472;-66
2022/06/02 06:45:58;;;;;;;2.30;1.10;;;19.30;44.10;;;;;;4911683;29;20512;-66
2022/06/02 06:48:35;;;;;;;4.40;1.48;;;19.40;44.70;;;;;;4897970;29;20047;-67
2022/06/02 06:51:21;;;;;;;3.40;1.38;;;19.60;44.00;;;;;;4910082;29;20059;-66
2022/06/02 06:53:55;;;;;;;3.28;1.30;;;19.60;43.40;;;;;;4894406;29;20078;-66
2022/06/02 06:56:44;;;;;;;2.80;1.30;;;19.50;44.00;;;;;;4909882;29;20534;-67
2022/06/02 06:59:26;;;;;;;4.60;1.40;;;19.20;44.80;;;;;;4910394;29;20119;-66
2022/06/02 07:02:00;;;;;;;3.85;1.50;;;19.10;45.60;;;;;;4910234;29;20123;-66
2022/06/02 07:04:46;;;;;;;4.05;1.45;;;19.00;44.90;;;;;;4910686;29;20905;-66
2022/06/02 07:07:26;;;;;;;5.18;1.70;;;18.90;45.70;;;;;;4910349;29;20051;-66
2022/06/02 07:10:11;;;;;;;4.03;1.30;;;18.90;45.80;;;;;;4907623;29;20040;-66
2022/06/02 07:12:52;;;;;;;5.40;1.80;;;18.90;46.10;;;;;;4969023;28;20050;-67
2022/06/02 07:15:27;;;;;;;;;;;19.50;44.80;;;;;;4967522;28;20111;-66
2022/06/02 07:18:16;;;;;;;4.07;1.48;;;22.10;38.60;;;;;;4967045;28;20005;-67
2022/06/02 07:21:19;;;;;;;4.57;1.80;;;21.90;37.60;;;;;;5018993;28;20036;-67
2022/06/02 07:24:03;;;;;;;8.40;1.80;;;21.00;40.60;;;;;;5025310;28;20045;-67
2022/06/02 07:26:50;;;;;;;4.07;1.45;;;20.20;42.00;;;;;;5026271;28;20040;-66
2022/06/02 07:29:44;;;;;;;5.32;1.52;;;19.80;43.30;;;;;;5012820;28;20436;-67
2022/06/02 07:32:11;;;;;;;4.57;1.60;;;19.60;44.70;;;;;;5016675;28;20045;-67
2022/06/02 07:34:58;;;;;;;4.53;1.60;;;19.50;44.70;;;;;;5018570;28;20022;-67
2022/06/02 07:37:54;;;;;;;6.38;1.67;;;19.40;45.40;;;;;;5011853;28;20044;-67
2022/06/02 07:40:22;;;;;;;7.20;1.77;;;19.30;45.00;;;;;;5024796;28;20047;-67
2022/06/02 07:43:10;;;;;;;3.65;1.50;;;19.30;45.00;;;;;;5014718;28;20034;-66
2022/06/02 07:45:55;;;;;;;4.25;1.60;;;19.40;45.20;;;;;;5011497;28;20096;-66
2022/06/02 07:48:39;;;;;;;5.32;1.60;;;19.40;45.30;;;;;;5012115;28;20046;-67
2022/06/02 07:51:32;;;;;;;4.28;1.73;;;19.50;45.40;;;;;;5018595;28;20018;-67
2022/06/02 07:54:17;;;;;;;4.57;1.65;;;19.60;44.90;;;;;;5018076;28;20037;-66
2022/06/02 07:57:12;;;;;;;5.50;1.70;;;19.60;45.10;;;;;;5012207;28;20042;-66
2022/06/02 08:00:03;;;;;;;5.97;1.80;;;19.60;45.60;;;;;;5014604;28;20033;-66
2022/06/02 08:02:50;;;;;;;6.72;1.70;;;19.60;45.30;;;;;;5019580;28;20040;-66
2022/06/02 08:05:31;;;;;;;5.28;1.65;;;19.50;45.80;;;;;;5012765;28;20083;-66
2022/06/02 08:08:00;;;;;;;5.40;1.80;;;19.40;46.10;;;;;;5012566;28;20030;-66
2022/06/02 08:10:43;;;;;;;5.25;1.90;;;19.30;46.00;;;;;;5009966;28;20033;-66
2022/06/02 08:13:22;;;;;;;6.55;2.10;;;19.30;46.40;;;;;;5024076;28;20049;-66
2022/06/02 08:15:58;;;;;;;5.47;1.60;;;19.20;47.20;;;;;;5013934;28;20452;-66
2022/06/02 08:18:36;;;;;;;4.85;1.63;;;19.30;47.30;;;;;;5012602;28;20050;-66
2022/06/02 08:21:20;;;;;;;5.68;1.50;;;19.30;47.40;;;;;;5015988;28;20021;-66
2022/06/02 08:24:11;;;;;;;7.93;1.70;;;19.40;47.10;;;;;;5019550;28;20030;-66
2022/06/02 08:27:12;;;;;;;5.13;1.75;;;19.70;47.20;;;;;;5012429;28;20026;-66
2022/06/02 08:30:05;;;;;;;7.75;1.80;;;19.90;45.60;;;;;;5012275;28;20489;-66
2022/06/02 08:33:00;;;;;;;5.43;1.83;;;20.10;45.30;;;;;;5015215;28;20041;-66
2022/06/02 08:35:34;;;;;;;4.45;1.67;;;20.20;45.10;;;;;;5012041;28;20044;-66
2022/06/02 08:38:24;;;;;;;4.68;1.40;;;20.30;45.50;;;;;;5011826;28;20091;-66
2022/06/02 08:41:01;;;;;;;3.78;1.63;;;20.50;45.20;;;;;;5013749;28;20076;-66
2022/06/02 08:44:03;;;;;;;7.45;1.60;;;20.70;44.90;;;;;;5018040;28;20037;-67
2022/06/02 08:46:56;;;;;;;4.15;1.50;;;21.10;43.80;;;;;;5011685;28;20033;-67
2022/06/02 08:49:51;;;;;;;3.95;1.65;;;21.70;42.70;;;;;;5009701;28;20543;-67
2022/06/02 08:52:50;;;;;;;5.95;1.70;;;22.10;40.40;;;;;;5026110;28;20036;-67
2022/06/02 08:55:53;;;;;;;9.52;1.55;;;22.30;39.50;;;;;;5023682;28;20057;-67
2022/06/02 08:58:40;;;;;;;5.57;1.42;;;22.60;39.60;;;;;;5023574;28;20120;-67
2022/06/02 09:01:12;;;;;;;3.75;1.50;;;22.70;39.50;;;;;;5024760;28;20164;-67
2022/06/02 09:03:38;;;;;;;3.95;1.50;;;22.70;38.40;;;;;;5011342;28;20022;-67
2022/06/02 09:06:34;;;;;;;7.55;1.60;;;22.70;38.40;;;;;;5011787;28;20061;-67
2022/06/02 09:09:38;;;;;;;5.05;1.40;;;22.70;38.50;;;;;;5014870;28;20112;-67
2022/06/02 09:12:06;;;;;;;7.72;1.52;;;22.80;38.80;;;;;;5013225;28;20599;-67
2022/06/02 09:15:05;;;;;;;5.18;1.65;;;23.00;38.70;;;;;;5014017;28;20108;-67
2022/06/02 09:17:45;;;;;;;4.13;1.42;;;23.30;38.40;;;;;;5014490;28;20058;-67
2022/06/02 09:20:13;;;;;;;5.95;2.00;;;23.90;37.70;;;;;;5019977;28;20037;-67
2022/06/02 09:22:58;;;;;;;4.07;1.50;;;24.50;35.80;;;;;;5013706;28;20116;-67
2022/06/02 09:26:11;;;;;;;4.65;1.60;;;25.00;35.10;;;;;;5008899;28;20095;-67
2022/06/02 09:28:49;;;;;;;4.40;1.52;;;25.80;33.40;;;;;;4966763;28;20114;-68
2022/06/02 09:31:57;;;;;;;3.65;1.55;;;26.50;32.40;;;;;;4967452;28;20041;-67
2022/06/02 09:34:51;;;;;;;4.85;1.50;;;27.00;31.00;;;;;;4971383;28;20031;-67
2022/06/02 09:37:20;;;;;;;6.75;1.50;;;27.60;30.40;;;;;;4985073;28;20051;-67
2022/06/02 09:40:19;;;;;;;6.85;1.60;;;28.20;29.60;;;;;;4981831;28;20031;-68
2022/06/02 09:42:53;;;;;;;5.63;1.40;;;28.90;28.50;;;;;;4974928;28;20047;-67
2022/06/02 09:45:38;;;;;;;7.10;1.60;;;29.20;27.40;;;;;;4973689;28;20550;-67
2022/06/02 09:48:21;;;;;;;4.18;1.50;;;29.20;27.30;;;;;;4973217;28;20042;-68
2022/06/02 09:51:21;;;;;;;5.65;1.40;;;29.60;27.00;;;;;;4979415;28;20088;-67
2022/06/02 09:54:06;;;;;;;8.48;1.80;;;29.70;27.40;;;;;;4968913;28;20498;-67
2022/06/02 09:56:35;;;;;;;5.80;1.60;;;30.00;27.30;;;;;;4968747;28;20179;-67
2022/06/02 09:59:17;;;;;;;6.85;1.90;;;30.60;26.40;;;;;;4968242;28;20497;-67
2022/06/02 10:02:13;;;;;;;6.53;1.65;;;31.30;25.80;;;;;;4968712;28;20057;-67
2022/06/02 10:05:11;;;;;;;5.72;1.60;;;32.10;23.70;;;;;;5004438;28;20069;-67
2022/06/02 10:07:47;;;;;;;7.22;1.60;;;32.60;23.30;;;;;;5004539;28;20045;-67
2022/06/02 10:10:21;;;;;;;6.93;1.70;;;33.10;22.50;;;;;;5025356;28;20034;-67
2022/06/02 10:13:17;;;;;;;7.20;1.55;;;33.30;22.50;;;;;;5028026;28;20831;-67
2022/06/02 10:16:20;;;;;;;7.30;1.67;;;32.70;23.40;;;;;;5028280;28;20519;-67
2022/06/02 10:19:07;;;;;;;6.50;1.40;;;32.20;23.70;;;;;;5027607;28;20539;-67
2022/06/02 10:21:46;;;;;;;5.80;1.00;;;31.50;24.70;;;;;;5027830;28;20056;-67
2022/06/02 10:24:33;;;;;;;6.13;1.42;;;31.10;24.20;;;;;;5025792;28;20073;-67
2022/06/02 10:27:08;;;;;;;9.75;1.55;;;31.60;23.30;;;;;;5027199;28;20045;-67
2022/06/02 10:30:03;;;;;;;7.82;1.38;;;31.60;23.40;;;;;;5026770;28;20059;-67
2022/06/02 10:32:51;;;;;;;8.88;1.75;;;32.80;23.50;;;;;;5020837;28;20030;-67
2022/06/02 10:35:26;;;;;;;4.63;1.48;;;31.40;24.50;;;;;;5021007;28;20079;-67
2022/06/02 10:37:55;;;;;;;5.38;1.30;;;29.90;26.20;;;;;;5014947;28;20563;-66
2022/06/02 10:40:51;;;;;;;5.45;1.30;;;29.30;26.80;;;;;;5029119;28;20037;-66
2022/06/02 10:43:41;;;;;;;6.07;1.23;;;29.00;27.00;;;;;;5026984;28;20442;-67
2022/06/02 10:46:42;;;;;;;9.53;1.60;;;28.70;26.60;;;;;;5026061;28;20029;-66
2022/06/02 10:49:22;;;;;;;4.18;1.30;;;29.00;26.50;;;;;;5007122;28;20353;-67
2022/06/02 10:52:25;;;;;;;5.93;1.30;;;29.50;26.20;;;;;;5010510;28;20128;-67
2022/06/02 10:55:18;;;;;;;4.82;1.40;;;29.80;25.70;;;;;;5008055;28;20053;-67
2022/06/02 10:58:11;;;;;;;7.82;1.30;;;28.90;26.60;;;;;;5008518;28;20060;-66
2022/06/02 11:01:13;;;;;;;5.07;1.35;;;28.70;27.20;;;;;;5007740;28;20041;-66
2022/06/02 11:03:44;;;;;;;5.65;1.40;;;28.50;27.30;;;;;;5008186;28;20105;-67
2022/06/02 11:06:47;;;;;;;6.35;1.40;;;29.30;26.70;;;;;;5006620;28;20037;-67
2022/06/02 11:09:50;;;;;;;6.78;1.30;;;30.50;25.50;;;;;;5006106;28;20139;-67
2022/06/02 11:12:39;;;;;;;4.78;1.25;;;32.20;23.90;;;;;;5006725;28;20051;-67
2022/06/02 11:15:26;;;;;;;6.95;1.45;;;34.00;22.30;;;;;;5006274;28;20038;-67
2022/06/02 11:18:19;;;;;;;5.93;1.48;;;33.00;23.40;;;;;;5005789;28;20057;-67
2022/06/02 11:20:53;;;;;;;6.55;1.50;;;31.80;24.00;;;;;;5006486;28;20042;-67
2022/06/02 11:23:29;;;;;;;6.95;1.58;;;32.00;24.10;;;;;;5015005;28;20065;-67
2022/06/02 11:26:09;;;;;;;4.97;1.60;;;31.70;25.30;;;;;;5012975;28;20395;-67
2022/06/02 11:28:34;;;;;;;4.25;1.25;;;33.60;23.20;;;;;;5026656;28;20061;-67
2022/06/02 11:31:26;;;;;;;8.73;1.20;;;35.50;21.50;;;;;;5009795;28;20084;-67
2022/06/02 11:34:16;;;;;;;7.40;1.30;;;36.90;20.50;;;;;;5009014;28;20049;-67
2022/06/02 11:36:48;;;;;;;8.98;1.50;;;37.90;19.90;;;;;;5027665;28;20460;-67
2022/06/02 11:39:22;;;;;;;4.88;1.27;;;38.70;18.90;;;;;;5013443;28;20037;-67
2022/06/02 11:41:55;;;;;;;31.45;2.10;;;39.20;18.20;;;;;;5012906;28;20508;-67
2022/06/02 11:44:47;;;;;;;5.78;1.00;;;39.50;17.90;;;;;;5017890;28;20033;-67
2022/06/02 11:47:57;;;;;;;3.58;1.00;;;39.00;18.40;;;;;;5027524;28;20043;-67
2022/06/02 11:50:57;;;;;;;5.97;1.23;;;36.80;19.60;;;;;;5002282;28;20042;-67
2022/06/02 11:53:48;;;;;;;7.60;1.20;;;34.40;21.50;;;;;;4996773;28;20151;-67
2022/06/02 11:56:28;;;;;;;;;;;32.50;22.40;;;;;;5006134;28;20541;-66
2022/06/02 11:59:51;;;;;;;4.38;1.10;;;31.20;23.70;;;;;;4994300;28;19909;-66
2022/06/02 12:02:22;;;;;;;5.88;1.30;;;30.10;27.10;;;;;;4960526;28;20561;-66
2022/06/02 12:05:36;;;;;;;6.90;1.50;;;28.50;29.10;;;;;;4939927;28;20035;-66
2022/06/02 12:08:26;;;;;;;4.40;1.50;;;28.00;30.30;;;;;;4889196;29;20048;-67
2022/06/02 12:10:59;;;;;;;6.40;1.33;;;28.40;29.70;;;;;;4888595;29;20036;-66
2022/06/02 12:13:44;;;;;;;4.78;1.40;;;30.00;28.60;;;;;;4890415;29;20037;-67
2022/06/02 12:16:22;;;;;;;5.63;1.30;;;31.50;26.40;;;;;;4905868;29;20028;-66
2022/06/02 12:19:00;;;;;;;6.07;1.23;;;31.20;26.50;;;;;;4895757;29;20053;-66
2022/06/02 12:21:37;;;;;;;4.60;1.20;;;30.80;26.70;;;;;;4902304;29;20166;-67
2022/06/02 12:24:29;;;;;;;4.65;1.27;;;30.50;26.50;;;;;;4876887;29;20044;-66
2022/06/02 12:27:12;;;;;;;5.45;1.48;;;30.70;25.70;;;;;;4903587;29;20047;-66
2022/06/02 12:30:12;;;;;;;6.53;1.20;;;33.00;24.20;;;;;;4928034;29;20032;-67
2022/06/02 12:33:04;;;;;;;3.30;1.05;;;34.70;22.70;;;;;;4944720;28;20039;-67
2022/06/02 12:35:43;;;;;;;7.05;1.13;;;36.30;21.20;;;;;;4965881;28;20035;-66
2022/06/02 12:38:19;;;;;;;2.95;1.00;;;37.20;20.60;;;;;;4965330;28;20131;-66
2022/06/02 12:41:06;;;;;;;3.70;1.00;;;38.00;19.60;;;;;;4965959;28;20035;-67
2022/06/02 12:43:47;;;;;;;2.85;0.95;;;38.60;19.10;;;;;;4961876;28;20044;-66
2022/06/02 12:46:35;;;;;;;3.13;1.00;;;39.00;18.40;;;;;;5011189;28;20026;-66
2022/06/02 12:49:31;;;;;;;3.58;1.00;;;38.90;18.50;;;;;;5024769;28;20033;-67
2022/06/02 12:52:09;;;;;;;4.03;1.02;;;38.60;18.90;;;;;;5025244;28;20157;-67
2022/06/02 12:54:59;;;;;;;5.53;1.10;;;38.80;18.60;;;;;;5011062;28;20099;-66
2022/06/02 12:58:02;;;;;;;8.73;1.00;;;39.00;18.00;;;;;;5035370;28;20033;-67
2022/06/02 13:00:48;;;;;;;5.00;1.00;;;39.00;17.30;;;;;;5013007;28;20401;-67
2022/06/02 13:03:51;;;;;;;4.15;0.90;;;38.90;17.80;;;;;;5026706;28;20029;-67
2022/06/02 13:06:55;;;;;;;3.97;1.10;;;38.50;16.90;;;;;;5013561;28;20065;-67
2022/06/02 13:09:27;;;;;;;4.40;0.88;;;37.80;17.90;;;;;;5024134;28;20072;-67
2022/06/02 13:12:26;;;;;;;5.60;1.10;;;37.00;19.00;;;;;;5024272;28;20578;-66
2022/06/02 13:15:29;;;;;;;5.32;1.10;;;36.20;19.80;;;;;;5011568;28;20052;-66
2022/06/02 13:18:10;;;;;;;5.53;1.02;;;35.40;20.50;;;;;;5022287;28;20104;-66
2022/06/02 13:20:57;;;;;;;9.88;1.15;;;34.20;21.70;;;;;;5023153;28;20037;-66
2022/06/02 13:23:42;;;;;;;2.75;1.00;;;33.40;22.30;;;;;;5024163;28;20124;-67
2022/06/02 13:26:16;;;;;;;3.85;1.00;;;32.90;22.70;;;;;;5024725;28;20033;-66
2022/06/02 13:29:09;;;;;;;3.67;1.20;;;32.50;23.10;;;;;;5015926;28;20077;-67
2022/06/02 13:31:43;;;;;;;3.25;1.00;;;32.70;23.40;;;;;;4966173;28;20035;-66
2022/06/02 13:34:46;;;;;;;4.18;1.08;;;32.90;23.00;;;;;;4968014;28;20410;-66
2022/06/02 13:37:56;;;;;;;3.25;1.02;;;33.10;23.00;;;;;;4966808;28;20498;-67
2022/06/02 13:40:22;;;;;;;;;;;32.60;22.90;;;;;;4965977;28;20097;-67
2022/06/02 13:43:03;;;;;;;4.55;1.38;;;31.90;23.80;;;;;;4969868;28;19914;-66
2022/06/02 13:45:53;;;;;;;4.65;1.30;;;31.70;24.50;;;;;;4966446;28;20031;-66
2022/06/02 13:49:02;;;;;;;5.78;1.45;;;31.30;25.10;;;;;;4967513;28;20054;-66
2022/06/02 13:51:31;;;;;;;3.88;1.20;;;31.30;25.50;;;;;;4970110;28;20031;-66
2022/06/02 13:57:47;;;;;;;4.85;1.17;;;30.50;26.10;;;;;;4968262;28;20402;-66
2022/06/02 14:00:28;;;;;;;3.38;1.30;;;30.70;26.90;;;;;;4988044;28;20178;-66
2022/06/02 14:03:27;;;;;;;4.07;1.20;;;30.80;27.50;;;;;;4985650;28;20201;-66
2022/06/02 14:06:05;;;;;;;6.45;1.38;;;30.80;26.70;;;;;;4984704;28;20043;-66
2022/06/02 14:09:03;;;;;;;7.28;1.50;;;30.90;25.50;;;;;;5014621;28;20088;-66
2022/06/02 14:12:05;;;;;;;5.53;1.30;;;30.70;26.20;;;;;;5041615;28;20087;-66
2022/06/02 14:15:08;;;;;;;5.20;1.40;;;30.60;25.90;;;;;;5035995;28;20033;-67
2022/06/02 14:17:33;;;;;;;7.43;1.48;;;30.30;26.50;;;;;;5038894;28;20506;-66
2022/06/02 14:20:13;;;;;;;7.90;1.50;;;29.90;26.70;;;;;;5047360;28;20247;-66
2022/06/02 14:22:57;;;;;;;5.97;1.30;;;29.70;27.20;;;;;;5036020;28;20144;-66
2022/06/02 14:25:50;;;;;;;4.15;1.50;;;29.60;27.50;;;;;;5031182;28;20094;-66
2022/06/02 14:28:40;;;;;;;5.28;1.50;;;29.40;27.20;;;;;;5046622;28;20130;-66
2022/06/02 14:31:33;;;;;;;6.57;1.30;;;29.10;27.10;;;;;;5043896;28;20036;-66
2022/06/02 14:34:29;;;;;;;6.40;1.50;;;29.00;27.60;;;;;;5037490;28;20029;-66